Time;durP1;ratioP1;P1;durP2;ratioP2;P2;SDS_P1;SDS_P2;PMS_P1;PMS_P2;Temp;Humidity;BMP_temperature;BMP_pressure;BME280_temperature;BME280_humidity;BME280_pressure;Samples;Min_cycle;Max_cycle;Signal;HPM_P1;HPM_P2
2022/01/24 00:00:12;;;;;;;15.18;7.35;;;;;;;;;;4901312;29;20087;-78
2022/01/24 00:02:38;;;;;;;16.13;8.35;;;;;;;;;;4898842;29;20044;-77
2022/01/24 00:05:05;;;;;;;15.35;7.57;;;;;;;;;;4900950;29;20493;-78
2022/01/24 00:07:32;;;;;;;17.05;8.20;;;;;;;;;;4900884;29;20095;-78
2022/01/24 00:10:03;;;;;;;16.13;7.55;;;;;;;;;;4899692;29;21574;-79
2022/01/24 00:12:36;;;;;;;19.52;7.80;;;;;;;;;;4899925;29;20489;-79
2022/01/24 00:15:15;;;;;;;26.05;9.85;;;;;;;;;;4896474;29;20493;-79
2022/01/24 00:17:48;;;;;;;27.67;10.50;;;;;;;;;;4900190;29;20041;-80
2022/01/24 00:28:28;;;;;;;26.48;12.50;;;;;;;;;;4901572;29;20119;-77
2022/01/24 00:30:56;;;;;;;21.17;10.23;;;;;;;;;;4899270;29;20079;-80
2022/01/24 00:33:23;;;;;;;26.67;11.82;;;;;;;;;;4899959;29;20458;-79
2022/01/24 00:35:50;;;;;;;28.60;12.15;;;;;;;;;;4903906;29;20069;-79
2022/01/24 00:38:17;;;;;;;30.42;12.57;;;;;;;;;;4900079;29;20852;-79
2022/01/24 00:40:47;;;;;;;23.98;12.20;;;;;;;;;;4900131;29;20044;-78
2022/01/24 00:43:23;;;;;;;19.23;9.35;;;;;;;;;;4900242;29;20053;-77
2022/01/24 00:45:58;;;;;;;23.85;11.02;;;;;;;;;;4896780;29;20041;-77
2022/01/24 00:48:36;;;;;;;19.45;9.98;;;;;;;;;;4902923;29;20058;-79
2022/01/24 00:54:42;;;;;;;22.05;9.63;;;;;;;;;;4908306;29;20139;-82
2022/01/24 00:56:58;;;;;;;20.40;10.80;;;;;;;;;;4918061;29;20140;-77
2022/01/24 00:59:24;;;;;;;20.08;10.40;;;;;;;;;;4918097;29;20477;-77
2022/01/24 01:01:51;;;;;;;23.65;13.43;;;;;;;;;;4918472;29;20488;-79
2022/01/24 01:04:22;;;;;;;31.38;13.48;;;;;;;;;;4919179;29;20461;-79
2022/01/24 01:06:50;;;;;;;34.58;16.70;;;;;;;;;;4918547;29;20043;-79
2022/01/24 01:20:26;;;;;;;18.58;9.40;;;;;;;;;;4916408;29;20103;-79
2022/01/24 01:22:52;;;;;;;19.38;9.70;;;;;;;;;;4920546;29;20048;-78
2022/01/24 01:25:19;;;;;;;17.92;9.57;;;;;;;;;;4919032;29;20091;-79
2022/01/24 01:27:48;;;;;;;20.05;10.25;;;;;;;;;;4918933;29;20068;-79
2022/01/24 01:30:18;;;;;;;15.93;8.43;;;;;;;;;;4917658;29;20123;-79
2022/01/24 01:32:57;;;;;;;16.20;8.13;;;;;;;;;;4917334;29;20044;-78
2022/01/24 01:35:53;;;;;;;16.75;8.45;;;;;;;;;;4913662;29;20107;-78
2022/01/24 01:38:41;;;;;;;13.32;6.85;;;;;;;;;;4917198;29;20080;-78
2022/01/24 01:52:37;;;;;;;17.10;8.18;;;;;;;;;;4918299;29;20055;-78
2022/01/24 01:55:15;;;;;;;15.88;8.10;;;;;;;;;;4915878;29;20059;-78
2022/01/24 01:57:41;;;;;;;17.10;8.15;;;;;;;;;;4917279;29;20048;-78
2022/01/24 02:00:09;;;;;;;18.23;9.75;;;;;;;;;;4916444;29;20076;-78
2022/01/24 02:02:36;;;;;;;16.52;8.82;;;;;;;;;;4918287;29;20076;-78
2022/01/24 02:05:03;;;;;;;18.25;8.10;;;;;;;;;;4916115;29;20412;-78
2022/01/24 02:07:30;;;;;;;17.10;8.48;;;;;;;;;;4920107;29;20082;-79
2022/01/24 02:09:57;;;;;;;17.75;7.78;;;;;;;;;;4915348;29;20080;-79
2022/01/24 02:12:26;;;;;;;14.35;7.57;;;;;;;;;;4917799;29;20103;-78
2022/01/24 02:14:57;;;;;;;18.70;9.32;;;;;;;;;;4922987;29;20084;-80
2022/01/24 02:17:32;;;;;;;16.90;8.27;;;;;;;;;;4920944;29;20046;-79
2022/01/24 02:20:13;;;;;;;19.40;7.38;;;;;;;;;;4917043;29;20052;-79
2022/01/24 02:22:48;;;;;;;16.38;8.25;;;;;;;;;;4917326;29;20048;-79
2022/01/24 02:25:26;;;;;;;16.40;7.57;;;;;;;;;;4913828;29;20485;-80
2022/01/24 02:27:58;;;;;;;15.57;7.78;;;;;;;;;;4917257;29;20096;-79
2022/01/24 02:30:42;;;;;;;16.77;8.38;;;;;;;;;;4916103;29;20127;-78
2022/01/24 05:41:37;;;;;;;26.17;11.38;;;;;;;;;;588720;23;20325;-79
2022/01/24 05:44:04;;;;;;;24.45;10.57;;;;;;;;;;4929375;29;20483;-79
2022/01/24 05:46:31;;;;;;;22.50;10.43;;;;;;;;;;4932048;29;20103;-80
2022/01/24 05:48:58;;;;;;;24.25;11.38;;;;;;;;;;4927876;29;20156;-80
2022/01/24 05:53:55;;;;;;;21.98;10.75;;;;;;;;;;4937633;28;20052;-78
2022/01/24 05:56:22;;;;;;;26.33;11.07;;;;;;;;;;4939538;29;20075;-80
2022/01/24 05:58:50;;;;;;;21.55;10.65;;;;;;;;;;4931422;29;20111;-80
2022/01/24 06:01:24;;;;;;;19.45;9.57;;;;;;;;;;4939140;29;20046;-80
2022/01/24 06:03:51;;;;;;;23.38;11.20;;;;;;;;;;4939480;29;20526;-84
2022/01/24 06:07:15;;;;;;;20.77;9.85;;;;;;;;;;4932920;29;20090;-83
2022/01/24 06:12:36;;;;;;;20.27;9.70;;;;;;;;;;4916223;29;20056;-80
2022/01/24 06:15:08;;;;;;;19.45;9.73;;;;;;;;;;4913205;29;20555;-80
2022/01/24 06:17:55;;;;;;;27.08;11.18;;;;;;;;;;4915797;29;20051;-79
2022/01/24 06:20:35;;;;;;;21.42;10.45;;;;;;;;;;4899426;29;20047;-80
2022/01/24 06:23:12;;;;;;;24.88;11.73;;;;;;;;;;4915400;29;20127;-80
2022/01/24 06:29:00;;;;;;;25.98;11.02;;;;;;;;;;4862678;29;20054;-80
2022/01/24 06:35:23;;;;;;;20.55;9.68;;;;;;;;;;4806923;29;20132;-79
2022/01/24 06:38:20;;;;;;;21.52;9.77;;;;;;;;;;4861595;29;20056;-80
2022/01/24 06:41:23;;;;;;;;;;;;;;;;;;4863094;29;20061;-83
2022/01/24 06:44:10;;;;;;;27.38;10.13;;;;;;;;;;4798840;29;19929;-80
2022/01/24 06:46:37;;;;;;;25.92;10.00;;;;;;;;;;4798607;29;20051;-79
2022/01/24 06:49:04;;;;;;;21.92;10.77;;;;;;;;;;4804694;29;20381;-79
2022/01/24 06:51:38;;;;;;;27.67;10.82;;;;;;;;;;4805732;29;20059;-79
2022/01/24 06:54:13;;;;;;;20.83;10.52;;;;;;;;;;4810628;29;20446;-79
2022/01/24 06:56:40;;;;;;;22.42;10.93;;;;;;;;;;4817396;29;20059;-79
2022/01/24 06:59:07;;;;;;;23.10;11.15;;;;;;;;;;4808541;29;20452;-78
2022/01/24 07:01:44;;;;;;;25.73;10.82;;;;;;;;;;4806413;29;20062;-80
2022/01/24 07:04:10;;;;;;;21.67;10.70;;;;;;;;;;4815652;29;21194;-79
2022/01/24 07:06:38;;;;;;;20.70;10.68;;;;;;;;;;4870871;29;20086;-79
2022/01/24 07:09:14;;;;;;;22.63;11.55;;;;;;;;;;4886283;29;20053;-80
2022/01/24 07:12:24;;;;;;;25.00;11.83;;;;;;;;;;4870594;29;20045;-82
2022/01/24 07:14:52;;;;;;;22.92;11.40;;;;;;;;;;4855978;29;20140;-79
2022/01/24 07:17:32;;;;;;;22.85;11.23;;;;;;;;;;4880268;29;20699;-80
2022/01/24 07:19:58;;;;;;;24.70;11.80;;;;;;;;;;4892383;29;20055;-79
2022/01/24 07:23:07;;;;;;;22.70;10.48;;;;;;;;;;4940893;29;20078;-80
2022/01/24 07:28:41;;;;;;;24.73;10.80;;;;;;;;;;4940105;29;20055;-78
2022/01/24 07:31:08;;;;;;;24.13;10.95;;;;;;;;;;4940822;29;20102;-80
2022/01/24 07:33:40;;;;;;;26.02;10.35;;;;;;;;;;4940129;29;20095;-79
2022/01/24 07:36:07;;;;;;;25.05;10.52;;;;;;;;;;4942315;29;20048;-79
2022/01/24 07:38:40;;;;;;;32.33;13.63;;;;;;;;;;4943521;29;20408;-80
2022/01/24 07:41:07;;;;;;;28.05;11.52;;;;;;;;;;4940500;29;20055;-80
2022/01/24 07:43:34;;;;;;;27.67;13.10;;;;;;;;;;4945359;29;20059;-80
2022/01/24 07:46:00;;;;;;;27.23;12.05;;;;;;;;;;4942344;29;20055;-80
2022/01/24 07:48:27;;;;;;;19.98;10.18;;;;;;;;;;4943243;29;20098;-79
2022/01/24 07:50:53;;;;;;;26.52;10.88;;;;;;;;;;4945886;29;20122;-79
2022/01/24 07:53:22;;;;;;;26.98;11.32;;;;;;;;;;4922056;29;20052;-80
2022/01/24 07:55:50;;;;;;;22.95;10.80;;;;;;;;;;4919784;29;20097;-79
2022/01/24 07:58:17;;;;;;;24.13;11.60;;;;;;;;;;4923837;29;20055;-80
2022/01/24 08:00:44;;;;;;;29.95;11.15;;;;;;;;;;4921816;29;20465;-79
2022/01/24 08:03:10;;;;;;;23.23;11.13;;;;;;;;;;4923799;29;20051;-79
2022/01/24 08:05:37;;;;;;;30.80;15.45;;;;;;;;;;4922289;29;20524;-80
2022/01/24 08:08:05;;;;;;;24.90;12.85;;;;;;;;;;4920281;29;20048;-80
2022/01/24 08:10:31;;;;;;;20.73;10.95;;;;;;;;;;4923749;29;20052;-79
2022/01/24 08:12:59;;;;;;;24.50;12.55;;;;;;;;;;4923872;29;20055;-79
2022/01/24 08:15:29;;;;;;;22.20;11.15;;;;;;;;;;4920888;29;20048;-81
2022/01/24 08:18:03;;;;;;;23.00;10.52;;;;;;;;;;4921879;29;20052;-80
2022/01/24 08:20:30;;;;;;;23.52;10.75;;;;;;;;;;4919614;29;20052;-79
2022/01/24 08:22:57;;;;;;;29.23;15.45;;;;;;;;;;4922727;29;20058;-80
2022/01/24 08:25:26;;;;;;;31.42;16.42;;;;;;;;;;4920735;29;20492;-81
2022/01/24 08:27:52;;;;;;;32.60;16.85;;;;;;;;;;4918684;29;20055;-80
2022/01/24 08:30:23;;;;;;;37.90;19.00;;;;;;;;;;4919391;29;20056;-79
2022/01/24 08:32:50;;;;;;;31.10;16.92;;;;;;;;;;4922368;29;20568;-80
2022/01/24 08:35:18;;;;;;;30.05;16.17;;;;;;;;;;4916258;29;20052;-81
2022/01/24 08:37:45;;;;;;;26.13;14.90;;;;;;;;;;4917788;29;20056;-81
2022/01/24 08:40:22;;;;;;;25.25;13.30;;;;;;;;;;4920081;29;20039;-81
2022/01/24 08:42:57;;;;;;;22.95;13.10;;;;;;;;;;4920992;29;20048;-81
2022/01/24 08:45:45;;;;;;;26.87;13.73;;;;;;;;;;4906506;29;20055;-81
2022/01/24 08:48:12;;;;;;;30.67;14.93;;;;;;;;;;4923784;29;20052;-81
2022/01/24 08:50:40;;;;;;;28.30;13.63;;;;;;;;;;4920923;29;20055;-81
2022/01/24 08:53:06;;;;;;;32.15;14.25;;;;;;;;;;4917675;29;20110;-80
2022/01/24 08:55:35;;;;;;;36.17;16.55;;;;;;;;;;4938286;29;20059;-80
2022/01/24 08:58:03;;;;;;;31.05;20.05;;;;;;;;;;4934663;29;20460;-79
2022/01/24 09:00:32;;;;;;;34.75;19.38;;;;;;;;;;4939871;29;20056;-80
2022/01/24 09:02:59;;;;;;;36.45;20.20;;;;;;;;;;4936758;29;20115;-80
2022/01/24 09:05:27;;;;;;;33.58;18.05;;;;;;;;;;4938128;29;20515;-80
2022/01/24 09:07:54;;;;;;;38.45;18.58;;;;;;;;;;4940673;29;20059;-80
2022/01/24 09:10:24;;;;;;;32.95;16.02;;;;;;;;;;4940173;28;20051;-80
2022/01/24 09:12:50;;;;;;;32.13;15.27;;;;;;;;;;4943513;29;20055;-80
2022/01/24 09:15:17;;;;;;;23.80;13.00;;;;;;;;;;4942272;29;20063;-81
2022/01/24 09:17:45;;;;;;;81.90;21.60;;;;;;;;;;4937309;29;20489;-80
2022/01/24 09:20:13;;;;;;;21.10;12.88;;;;;;;;;;4937735;29;20056;-80
2022/01/24 09:22:47;;;;;;;21.27;12.32;;;;;;;;;;4939243;29;20055;-84
2022/01/24 09:28:08;;;;;;;25.98;13.00;;;;;;;;;;4935546;29;20111;-80
2022/01/24 09:30:43;;;;;;;28.92;14.32;;;;;;;;;;4939072;29;20048;-81
2022/01/24 09:33:12;;;;;;;20.13;11.27;;;;;;;;;;4941144;29;20052;-81
2022/01/24 09:35:41;;;;;;;21.05;11.55;;;;;;;;;;4934540;29;23160;-80
2022/01/24 09:38:08;;;;;;;21.80;12.38;;;;;;;;;;4938776;29;20059;-80
2022/01/24 09:40:35;;;;;;;26.63;12.10;;;;;;;;;;4938508;29;20115;-80
2022/01/24 09:43:04;;;;;;;21.05;12.10;;;;;;;;;;4939387;29;20051;-81
2022/01/24 09:45:32;;;;;;;25.30;12.98;;;;;;;;;;4936678;29;20055;-81
2022/01/24 09:47:59;;;;;;;21.08;12.00;;;;;;;;;;4931118;28;20553;-80
2022/01/24 09:50:27;;;;;;;19.70;12.02;;;;;;;;;;4940289;29;20059;-81
2022/01/24 09:52:55;;;;;;;22.30;11.95;;;;;;;;;;4936959;28;20059;-80
2022/01/24 09:55:24;;;;;;;20.50;11.77;;;;;;;;;;4939721;29;20089;-80
2022/01/24 09:57:52;;;;;;;20.85;11.25;;;;;;;;;;4939100;28;20066;-80
2022/01/24 10:00:23;;;;;;;20.30;12.38;;;;;;;;;;4940797;29;20051;-80
2022/01/24 10:02:50;;;;;;;25.60;12.45;;;;;;;;;;4943038;29;20079;-80
2022/01/24 10:05:23;;;;;;;22.77;11.88;;;;;;;;;;4937749;29;20107;-81
2022/01/24 10:08:17;;;;;;;20.45;12.02;;;;;;;;;;4940142;29;20055;-82
2022/01/24 10:10:49;;;;;;;22.73;13.40;;;;;;;;;;4944201;29;20367;-81
2022/01/24 10:16:28;;;;;;;25.10;13.15;;;;;;;;;;4946903;29;20130;-81
2022/01/24 10:19:14;;;;;;;21.33;12.00;;;;;;;;;;4942822;29;20419;-81
2022/01/24 10:21:43;;;;;;;37.45;12.63;;;;;;;;;;4937073;29;20055;-81
2022/01/24 10:24:15;;;;;;;19.67;11.15;;;;;;;;;;4938379;29;20063;-81
2022/01/24 10:26:41;;;;;;;24.98;14.48;;;;;;;;;;4944296;29;20039;-81
2022/01/24 10:29:18;;;;;;;21.77;12.75;;;;;;;;;;4947253;28;20059;-82
2022/01/24 10:31:47;;;;;;;18.45;11.43;;;;;;;;;;4938225;29;20130;-80
2022/01/24 10:34:18;;;;;;;17.05;10.98;;;;;;;;;;4943375;29;20053;-81
2022/01/24 10:36:47;;;;;;;24.75;12.82;;;;;;;;;;4942272;29;20082;-81
2022/01/24 10:39:33;;;;;;;20.85;12.65;;;;;;;;;;4942694;29;20051;-81
2022/01/24 10:45:15;;;;;;;17.73;10.88;;;;;;;;;;4941477;29;20159;-81
2022/01/24 10:47:46;;;;;;;19.00;10.02;;;;;;;;;;4936346;29;20091;-80
2022/01/24 10:50:20;;;;;;;55.30;14.90;;;;;;;;;;4936937;29;20059;-80
2022/01/24 10:52:47;;;;;;;15.27;9.38;;;;;;;;;;4935536;29;20106;-79
2022/01/24 10:55:18;;;;;;;16.13;9.68;;;;;;;;;;4938989;29;20067;-80
2022/01/24 10:57:50;;;;;;;15.18;9.70;;;;;;;;;;4938525;29;20114;-79
2022/01/24 11:00:20;;;;;;;16.15;10.43;;;;;;;;;;4939873;29;20055;-80
2022/01/24 11:24:39;;;;;;;19.95;10.88;;;;;;;;;;4746165;30;20517;-82
2022/01/24 11:27:13;;;;;;;21.63;12.23;;;;;;;;;;4736581;30;20152;-80
2022/01/24 11:29:46;;;;;;;21.92;13.25;;;;;;;;;;4735983;30;20148;-79
2022/01/24 11:32:16;;;;;;;22.02;11.95;;;;;;;;;;4734530;30;20084;-79
2022/01/24 11:34:49;;;;;;;20.67;12.23;;;;;;;;;;4731438;30;20143;-78
2022/01/24 11:37:33;;;;;;;17.70;10.95;;;;;;;;;;4734142;30;20121;-78
2022/01/24 11:40:00;;;;;;;15.75;9.88;;;;;;;;;;4731504;30;20123;-77
2022/01/24 11:42:32;;;;;;;19.45;11.73;;;;;;;;;;4730579;30;20164;-78
2022/01/24 11:45:04;;;;;;;17.58;10.68;;;;;;;;;;4767120;30;20052;-77
2022/01/24 11:47:31;;;;;;;18.05;10.45;;;;;;;;;;4762801;30;20095;-77
2022/01/24 11:49:58;;;;;;;20.10;10.75;;;;;;;;;;4796872;29;20100;-77
2022/01/24 11:52:33;;;;;;;18.80;10.00;;;;;;;;;;4832097;29;20148;-77
2022/01/24 11:55:14;;;;;;;20.85;10.38;;;;;;;;;;4855468;29;20129;-77
2022/01/24 11:57:44;;;;;;;19.08;9.35;;;;;;;;;;4859906;29;20133;-77
2022/01/24 12:00:23;;;;;;;19.20;9.82;;;;;;;;;;4913370;29;20649;-77
2022/01/24 12:02:52;;;;;;;17.30;9.68;;;;;;;;;;4930344;29;20115;-77
2022/01/24 12:05:21;;;;;;;17.88;10.48;;;;;;;;;;4930044;29;20048;-77
2022/01/24 12:07:50;;;;;;;19.30;10.57;;;;;;;;;;4933465;29;20139;-77
2022/01/24 12:10:46;;;;;;;18.10;10.32;;;;;;;;;;4934973;29;20048;-78
2022/01/24 12:13:19;;;;;;;15.30;9.75;;;;;;;;;;4933376;29;20054;-77
2022/01/24 12:16:03;;;;;;;16.75;10.07;;;;;;;;;;4930051;29;20056;-77
2022/01/24 12:19:02;;;;;;;18.48;10.85;;;;;;;;;;4933927;29;21379;-77
2022/01/24 12:21:32;;;;;;;19.45;8.85;;;;;;;;;;4934496;29;20052;-77
2022/01/24 12:24:01;;;;;;;16.70;9.15;;;;;;;;;;4933390;29;20083;-77
2022/01/24 12:26:30;;;;;;;17.33;10.05;;;;;;;;;;4935760;29;20082;-78
2022/01/24 12:29:03;;;;;;;17.98;10.05;;;;;;;;;;4933076;29;20619;-77
2022/01/24 12:31:34;;;;;;;17.05;9.60;;;;;;;;;;4933150;29;20135;-77
2022/01/24 12:34:13;;;;;;;19.48;10.98;;;;;;;;;;4934605;29;20094;-78
2022/01/24 12:37:20;;;;;;;19.63;10.95;;;;;;;;;;4930971;29;20371;-77
2022/01/24 12:39:54;;;;;;;19.95;11.20;;;;;;;;;;4930075;29;20147;-77
2022/01/24 12:42:56;;;;;;;21.13;12.32;;;;;;;;;;4931737;29;20564;-77
2022/01/24 12:48:10;;;;;;;21.85;11.57;;;;;;;;;;4932293;29;20062;-77
2022/01/24 12:50:37;;;;;;;17.85;10.88;;;;;;;;;;4931600;29;20147;-77
2022/01/24 12:53:13;;;;;;;18.38;10.80;;;;;;;;;;4930246;28;20163;-77
2022/01/24 12:55:40;;;;;;;18.10;10.65;;;;;;;;;;4932837;29;20058;-77
2022/01/24 12:58:07;;;;;;;18.92;11.98;;;;;;;;;;4931649;29;20094;-77
2022/01/24 13:00:37;;;;;;;21.88;11.68;;;;;;;;;;4934671;29;20134;-76
2022/01/24 13:03:04;;;;;;;24.38;12.95;;;;;;;;;;4932722;29;20504;-77
2022/01/24 13:05:37;;;;;;;21.55;10.60;;;;;;;;;;4932074;29;20071;-77
2022/01/24 13:08:04;;;;;;;17.77;10.15;;;;;;;;;;4933847;29;20075;-77
2022/01/24 13:10:32;;;;;;;19.67;10.65;;;;;;;;;;4932708;29;20123;-77
2022/01/24 13:13:04;;;;;;;19.48;10.82;;;;;;;;;;4930750;29;20476;-77
2022/01/24 13:21:12;;;;;;;21.15;11.93;;;;;;;;;;4930218;29;20058;-77
2022/01/24 13:23:43;;;;;;;21.10;11.02;;;;;;;;;;4932281;29;20051;-77
2022/01/24 13:26:11;;;;;;;20.63;11.13;;;;;;;;;;4933874;29;20120;-77
2022/01/24 13:28:38;;;;;;;21.45;11.73;;;;;;;;;;4933600;29;20130;-77
2022/01/24 13:31:05;;;;;;;23.83;13.55;;;;;;;;;;4938021;29;20074;-77
2022/01/24 13:33:35;;;;;;;18.58;10.48;;;;;;;;;;4933403;29;20058;-77
2022/01/24 13:36:04;;;;;;;20.08;11.50;;;;;;;;;;4927807;29;20138;-77
2022/01/24 13:38:33;;;;;;;17.15;10.55;;;;;;;;;;4931998;29;20050;-77
2022/01/24 13:41:03;;;;;;;20.40;10.13;;;;;;;;;;4929026;29;20047;-78
2022/01/24 13:43:33;;;;;;;17.23;10.43;;;;;;;;;;4932119;29;20071;-77
2022/01/24 13:46:00;;;;;;;18.27;9.18;;;;;;;;;;4932341;29;20491;-78
2022/01/24 13:48:27;;;;;;;15.27;8.18;;;;;;;;;;4929580;29;20126;-77
2022/01/24 13:50:57;;;;;;;17.65;9.98;;;;;;;;;;4933305;29;20122;-78
2022/01/24 13:53:31;;;;;;;17.05;9.43;;;;;;;;;;4925198;29;20079;-78
2022/01/24 13:55:58;;;;;;;16.48;9.50;;;;;;;;;;4915432;29;20079;-78
2022/01/24 13:58:26;;;;;;;16.40;9.55;;;;;;;;;;4919280;29;20062;-78
2022/01/24 14:00:58;;;;;;;16.23;8.93;;;;;;;;;;4919977;29;20072;-78
2022/01/24 14:03:24;;;;;;;18.80;9.50;;;;;;;;;;4920002;29;20056;-78
2022/01/24 14:06:14;;;;;;;17.48;9.20;;;;;;;;;;4917879;29;20083;-78
2022/01/24 14:08:40;;;;;;;20.48;10.80;;;;;;;;;;4915632;29;20128;-78
2022/01/24 14:11:13;;;;;;;16.85;8.95;;;;;;;;;;4916357;29;20056;-78
2022/01/24 14:13:39;;;;;;;18.40;9.95;;;;;;;;;;4916719;29;20056;-79
2022/01/24 14:16:13;;;;;;;17.48;10.50;;;;;;;;;;4916769;29;20056;-78
2022/01/24 14:18:39;;;;;;;19.17;10.90;;;;;;;;;;4919609;29;20072;-78
2022/01/24 14:21:13;;;;;;;17.63;10.15;;;;;;;;;;4914553;29;20123;-78
2022/01/24 14:23:43;;;;;;;19.35;10.23;;;;;;;;;;4918091;29;20056;-78
2022/01/24 14:26:14;;;;;;;16.75;9.90;;;;;;;;;;4916769;29;20052;-78
2022/01/24 14:28:40;;;;;;;16.23;9.98;;;;;;;;;;4910699;29;20086;-78
2022/01/24 14:31:12;;;;;;;17.15;10.15;;;;;;;;;;4911820;29;20152;-78
2022/01/24 14:33:39;;;;;;;16.52;10.15;;;;;;;;;;4915058;29;20044;-78
2022/01/24 14:36:12;;;;;;;18.92;10.20;;;;;;;;;;4908618;29;20080;-79
2022/01/24 14:38:43;;;;;;;17.42;9.10;;;;;;;;;;4909869;29;20723;-78
2022/01/24 14:41:14;;;;;;;19.58;10.43;;;;;;;;;;4908058;29;20075;-78
2022/01/24 14:46:29;;;;;;;16.57;9.97;;;;;;;;;;4909751;29;20188;-78
2022/01/24 14:48:58;;;;;;;18.17;10.13;;;;;;;;;;4906514;29;20119;-78
2022/01/24 14:51:28;;;;;;;17.13;9.77;;;;;;;;;;4910221;29;20135;-78
2022/01/24 14:53:58;;;;;;;18.05;10.02;;;;;;;;;;4917836;28;20063;-78
2022/01/24 14:56:25;;;;;;;18.92;10.90;;;;;;;;;;4923542;29;20134;-78
2022/01/24 14:58:52;;;;;;;17.52;10.43;;;;;;;;;;4926983;29;20437;-78
2022/01/24 15:01:19;;;;;;;16.00;9.23;;;;;;;;;;4926429;29;20134;-77
2022/01/24 15:03:46;;;;;;;18.00;10.85;;;;;;;;;;4924853;29;20477;-77
2022/01/24 15:06:14;;;;;;;21.15;10.07;;;;;;;;;;4925860;29;20134;-78
2022/01/24 15:08:42;;;;;;;19.45;10.57;;;;;;;;;;4924267;29;20072;-78
2022/01/24 15:11:13;;;;;;;17.08;10.10;;;;;;;;;;4924280;29;20100;-78
2022/01/24 15:13:43;;;;;;;17.50;11.43;;;;;;;;;;4927141;29;20080;-78
2022/01/24 15:16:18;;;;;;;15.73;9.77;;;;;;;;;;4928328;29;20055;-78
2022/01/24 15:27:02;;;;;;;18.50;10.13;;;;;;;;;;4927021;29;20051;-77
2022/01/24 15:29:30;;;;;;;17.33;10.32;;;;;;;;;;4925436;29;20138;-77
2022/01/24 15:31:57;;;;;;;21.42;11.25;;;;;;;;;;4931081;29;20044;-78
2022/01/24 15:34:25;;;;;;;24.35;11.60;;;;;;;;;;4930023;29;20401;-78
2022/01/24 15:36:53;;;;;;;23.10;10.63;;;;;;;;;;4933286;29;20056;-78
2022/01/24 15:39:19;;;;;;;19.77;11.10;;;;;;;;;;4931150;29;20119;-78
2022/01/24 15:41:50;;;;;;;20.40;11.15;;;;;;;;;;4929522;29;20083;-77
2022/01/24 15:47:19;;;;;;;23.27;11.90;;;;;;;;;;4933332;29;20063;-77
2022/01/24 15:49:46;;;;;;;25.35;13.63;;;;;;;;;;4926397;29;20059;-78
2022/01/24 15:52:15;;;;;;;25.08;13.02;;;;;;;;;;4927087;29;20123;-77
2022/01/24 15:54:46;;;;;;;28.85;14.00;;;;;;;;;;4926156;28;20147;-77
2022/01/24 15:59:58;;;;;;;24.00;12.80;;;;;;;;;;4927491;29;20062;-77
2022/01/24 16:02:25;;;;;;;24.33;12.50;;;;;;;;;;4928124;29;20182;-77
2022/01/24 16:04:52;;;;;;;21.10;11.95;;;;;;;;;;4928004;29;21406;-77
2022/01/24 16:07:18;;;;;;;20.08;11.80;;;;;;;;;;4928288;29;20091;-78
2022/01/24 16:09:45;;;;;;;22.30;12.18;;;;;;;;;;4927577;29;20170;-77
2022/01/24 16:12:14;;;;;;;20.65;11.07;;;;;;;;;;4927794;29;22019;-79
2022/01/24 16:14:40;;;;;;;25.48;11.77;;;;;;;;;;4928502;29;20048;-78
2022/01/24 16:17:08;;;;;;;51.78;21.92;;;;;;;;;;4928153;29;20126;-77
2022/01/24 16:19:38;;;;;;;34.20;16.58;;;;;;;;;;4930760;29;20381;-78
2022/01/24 16:22:29;;;;;;;38.00;16.23;;;;;;;;;;4931602;29;20048;-77
2022/01/24 16:27:40;;;;;;;25.48;13.63;;;;;;;;;;4933858;29;20058;-78
2022/01/24 16:30:07;;;;;;;23.95;12.75;;;;;;;;;;4927996;29;20079;-77
2022/01/24 16:32:36;;;;;;;25.85;11.77;;;;;;;;;;4931787;28;20146;-77
2022/01/24 16:35:03;;;;;;;20.88;11.13;;;;;;;;;;4931624;29;20147;-77
2022/01/24 16:37:35;;;;;;;20.98;10.85;;;;;;;;;;4930314;29;20065;-77
2022/01/24 16:40:01;;;;;;;23.00;11.25;;;;;;;;;;4933495;29;20052;-77
2022/01/24 16:42:29;;;;;;;23.52;12.70;;;;;;;;;;4928406;29;20091;-79
2022/01/24 16:45:12;;;;;;;24.20;12.05;;;;;;;;;;4930469;29;20393;-77
2022/01/24 16:47:39;;;;;;;23.00;11.88;;;;;;;;;;4928643;29;20066;-77
2022/01/24 16:50:06;;;;;;;29.15;15.77;;;;;;;;;;4932876;29;20436;-77
2022/01/24 16:52:32;;;;;;;23.33;12.93;;;;;;;;;;4926577;29;20056;-77
2022/01/24 16:54:59;;;;;;;25.35;12.77;;;;;;;;;;4928139;28;20126;-77
2022/01/24 16:57:25;;;;;;;25.63;12.77;;;;;;;;;;4925964;29;20136;-77
2022/01/24 16:59:52;;;;;;;22.00;10.98;;;;;;;;;;4930416;29;20174;-77
2022/01/24 17:02:19;;;;;;;21.75;9.80;;;;;;;;;;4935049;29;20142;-77
2022/01/24 17:04:47;;;;;;;22.23;11.07;;;;;;;;;;4939051;29;20141;-77
2022/01/24 17:07:16;;;;;;;23.83;12.15;;;;;;;;;;4939573;29;20079;-77
2022/01/24 17:09:42;;;;;;;19.70;9.68;;;;;;;;;;4932039;29;20114;-77
2022/01/24 17:12:10;;;;;;;24.10;11.90;;;;;;;;;;4928748;29;20460;-77
2022/01/24 17:14:38;;;;;;;25.35;12.68;;;;;;;;;;4930570;29;20067;-77
2022/01/24 17:17:05;;;;;;;24.10;11.52;;;;;;;;;;4936477;29;20082;-77
2022/01/24 17:19:31;;;;;;;27.83;12.32;;;;;;;;;;4935888;29;20082;-77
2022/01/24 17:22:00;;;;;;;23.98;11.88;;;;;;;;;;4939244;29;20160;-77
2022/01/24 17:24:28;;;;;;;23.65;13.05;;;;;;;;;;4934038;29;20059;-79
2022/01/24 17:26:55;;;;;;;30.58;11.75;;;;;;;;;;4936872;29;20134;-78
2022/01/24 17:29:21;;;;;;;23.75;11.50;;;;;;;;;;4939746;29;20078;-78
2022/01/24 17:31:48;;;;;;;23.92;11.48;;;;;;;;;;4940117;29;20244;-77
2022/01/24 17:34:15;;;;;;;28.00;12.45;;;;;;;;;;4936156;29;20134;-77
2022/01/24 17:36:42;;;;;;;23.48;10.90;;;;;;;;;;4937055;29;20051;-78
2022/01/24 17:39:10;;;;;;;26.23;10.98;;;;;;;;;;4940355;29;20043;-77
2022/01/24 17:41:37;;;;;;;23.55;11.88;;;;;;;;;;4939276;29;20558;-77
2022/01/24 17:44:04;;;;;;;23.05;11.40;;;;;;;;;;4936529;29;20134;-78
2022/01/24 17:46:31;;;;;;;24.40;11.27;;;;;;;;;;4936478;29;20047;-77
2022/01/24 17:48:58;;;;;;;24.15;12.82;;;;;;;;;;4938670;29;20086;-77
2022/01/24 17:51:25;;;;;;;22.20;11.23;;;;;;;;;;4938010;29;20094;-77
2022/01/24 17:53:51;;;;;;;21.98;11.90;;;;;;;;;;4939357;29;20110;-77
2022/01/24 17:56:19;;;;;;;23.45;11.18;;;;;;;;;;4941964;29;20178;-77
2022/01/24 17:58:46;;;;;;;26.95;11.63;;;;;;;;;;4943400;28;20082;-78
2022/01/24 18:01:13;;;;;;;24.90;11.80;;;;;;;;;;4940426;29;20130;-77
2022/01/24 18:03:39;;;;;;;23.88;11.25;;;;;;;;;;4943059;28;20460;-77
2022/01/24 18:06:07;;;;;;;24.52;10.95;;;;;;;;;;4939892;29;20046;-78
2022/01/24 18:08:39;;;;;;;26.35;10.90;;;;;;;;;;4943347;29;20054;-78
2022/01/24 18:11:05;;;;;;;24.52;11.13;;;;;;;;;;4941438;28;20047;-77
2022/01/24 18:13:34;;;;;;;23.40;10.73;;;;;;;;;;4941940;28;20146;-77
2022/01/24 18:16:01;;;;;;;27.60;11.52;;;;;;;;;;4937673;29;20134;-77
2022/01/24 18:18:28;;;;;;;35.67;16.17;;;;;;;;;;4937663;29;20050;-78
2022/01/24 18:20:55;;;;;;;29.83;13.57;;;;;;;;;;4941944;29;20051;-78
2022/01/24 18:23:22;;;;;;;32.95;13.63;;;;;;;;;;4941971;28;20062;-77
2022/01/24 18:25:49;;;;;;;26.10;12.63;;;;;;;;;;4941195;29;20150;-77
2022/01/24 18:28:15;;;;;;;32.10;14.60;;;;;;;;;;4940527;28;21572;-77
2022/01/24 18:30:43;;;;;;;29.88;13.55;;;;;;;;;;4942235;29;20138;-77
2022/01/24 18:33:10;;;;;;;27.48;12.20;;;;;;;;;;4939080;29;20132;-77
2022/01/24 18:35:41;;;;;;;31.85;13.82;;;;;;;;;;4936798;29;20085;-78
2022/01/24 18:38:07;;;;;;;29.88;12.43;;;;;;;;;;4932756;29;20051;-79
2022/01/24 18:40:41;;;;;;;25.77;13.10;;;;;;;;;;4937614;29;20079;-79
2022/01/24 18:43:07;;;;;;;26.13;12.63;;;;;;;;;;4936342;29;20044;-79
2022/01/24 18:45:34;;;;;;;26.98;12.20;;;;;;;;;;4932800;29;20154;-78
2022/01/24 18:48:02;;;;;;;28.30;12.77;;;;;;;;;;4936669;28;20082;-78
2022/01/24 18:50:30;;;;;;;28.98;13.63;;;;;;;;;;4938220;29;20166;-79
2022/01/24 18:53:06;;;;;;;30.15;12.77;;;;;;;;;;4939648;29;20091;-80
2022/01/24 18:55:34;;;;;;;34.58;13.43;;;;;;;;;;4940879;29;20063;-79
2022/01/24 18:58:04;;;;;;;30.02;12.73;;;;;;;;;;4941535;29;20094;-79
2022/01/24 19:00:31;;;;;;;29.48;14.10;;;;;;;;;;4937010;29;20083;-78
2022/01/24 19:02:58;;;;;;;29.70;12.27;;;;;;;;;;4941255;29;20074;-78
2022/01/24 20:09:49;;;;;;;30.85;16.65;;;;;;;;;;4873441;29;20090;-91
2022/01/24 20:12:23;;;;;;;39.30;18.23;;;;;;;;;;4872986;29;20832;-90
2022/01/24 20:18:03;;;;;;;30.42;12.90;;;;;;;;;;4874638;29;20237;-91
2022/01/24 20:20:37;;;;;;;29.73;11.70;;;;;;;;;;4874734;29;20560;-91
2022/01/24 20:33:11;;;;;;;73.28;31.77;;;;;;;;;;4800223;29;20083;-91
2022/01/24 20:44:33;;;;;;;32.80;14.75;;;;;;;;;;4883793;29;20054;-91
2022/01/24 21:02:04;;;;;;;38.28;15.70;;;;;;;;;;4855668;29;20593;-91
2022/01/24 21:04:54;;;;;;;38.90;15.65;;;;;;;;;;4837765;29;20495;-91
2022/01/24 21:26:35;;;;;;;36.00;15.05;;;;;;;;;;4745141;26;20060;-77
2022/01/24 21:29:57;;;;;;;34.63;15.88;;;;;;;;;;4849823;29;20068;-77
2022/01/24 23:04:05;;;;;;;38.53;16.38;;;;;;;;;;5006473;23;20059;-92
2022/01/24 23:07:10;;;;;;;34.95;14.55;;;;;;;;;;4912571;29;20575;-92
2022/01/24 23:12:49;;;;;;;43.35;15.25;;;;;;;;;;4916405;29;20094;-92
2022/01/24 23:18:48;;;;;;;47.00;17.48;;;;;;;;;;4915484;29;20112;-92